Time;durP1;ratioP1;P1;durP2;ratioP2;P2;SDS_P1;SDS_P2;PMS_P1;PMS_P2;Temp;Humidity;BMP_temperature;BMP_pressure;BME280_temperature;BME280_humidity;BME280_pressure;Samples;Min_cycle;Max_cycle;Signal;HPM_P1;HPM_P2
2022/06/04 19:25:32;;;;;;;16.10;9.13;;;;;;;19.56;74.23;100164.16;5026736;23;20220;-77
2022/06/04 19:28:04;;;;;;;12.83;8.93;;;;;;;19.49;74.73;100176.84;5028557;23;20273;-78
2022/06/04 19:30:30;;;;;;;12.87;9.27;;;;;;;19.40;74.93;100184.31;5001369;23;20209;-77
2022/06/04 19:32:57;;;;;;;13.80;8.80;;;;;;;19.42;74.12;100181.41;5017794;23;21295;-77
2022/06/04 19:35:24;;;;;;;12.13;6.80;;;;;;;19.49;70.39;100193.03;5014105;23;20288;-74
2022/06/04 19:37:50;;;;;;;9.07;7.10;;;;;;;19.47;70.38;100195.13;5008806;23;20201;-80
2022/06/04 19:40:17;;;;;;;10.80;6.60;;;;;;;19.48;68.82;100189.53;5020766;23;20226;-77
2022/06/04 19:42:44;;;;;;;18.83;6.50;;;;;;;19.47;66.82;100195.13;5015347;23;21747;-75
2022/06/04 19:45:11;;;;;;;10.27;6.17;;;;;;;19.27;66.29;100195.09;5011888;23;26404;-75
2022/06/04 19:47:37;;;;;;;13.83;6.50;;;;;;;19.27;65.56;100201.38;5029737;23;20460;-72
2022/06/04 19:50:05;;;;;;;6.60;5.00;;;;;;;19.26;64.79;100194.28;5014547;23;20761;-73
2022/06/04 19:55:05;;;;;;;16.40;8.50;;;;;;;19.15;63.89;100197.59;5022680;23;21791;-72
2022/06/04 19:55:21;;;;;;;9.47;4.83;;;;;;;19.12;63.29;100193.44;5007425;23;20201;-70
2022/06/04 19:57:49;;;;;;;7.33;4.90;;;;;;;19.18;62.75;100197.22;5009026;23;22369;-72
2022/06/04 20:00:19;;;;;;;10.60;4.60;;;;;;;19.18;62.33;100191.81;4999471;23;21603;-75
2022/06/04 20:02:46;;;;;;;11.83;4.97;;;;;;;19.28;62.00;100197.63;5029738;23;22980;-78
2022/06/04 20:05:13;;;;;;;8.50;4.50;;;;;;;19.29;62.07;100204.69;5039048;23;20227;-81
2022/06/04 20:07:39;;;;;;;7.87;4.77;;;;;;;19.30;61.61;100203.63;5013428;23;20214;-81
2022/06/04 20:10:07;;;;;;;7.23;4.03;;;;;;;19.24;61.59;100200.94;5037611;23;20301;-78
2022/06/04 20:12:35;;;;;;;6.77;4.63;;;;;;;19.20;61.69;100200.53;5026114;23;22901;-79
2022/06/04 20:15:03;;;;;;;8.63;4.80;;;;;;;19.26;61.82;100193.47;5010640;23;21446;-80
2022/06/04 20:17:31;;;;;;;9.23;4.70;;;;;;;19.26;61.83;100194.28;5038408;23;20216;-76
2022/06/04 20:19:58;;;;;;;8.27;3.97;;;;;;;19.13;62.01;100194.31;5011501;23;22960;-79
2022/06/04 20:22:24;;;;;;;9.70;4.00;;;;;;;19.10;62.74;100192.81;5025840;23;20332;-77
2022/06/04 20:24:51;;;;;;;6.63;4.13;;;;;;;19.13;62.53;100203.22;5049286;23;20273;-79
2022/06/04 20:27:18;;;;;;;5.23;3.70;;;;;;;19.08;62.89;100199.47;5042063;23;20338;-78
2022/06/04 20:29:45;;;;;;;11.37;4.10;;;;;;;19.04;62.86;100206.34;5066106;23;22231;-79
2022/06/04 20:32:14;;;;;;;7.17;4.07;;;;;;;18.94;63.55;100204.00;5049459;23;21238;-78
2022/06/04 20:34:41;;;;;;;9.63;3.70;;;;;;;18.90;63.66;100205.47;5050714;23;20366;-80
2022/06/04 20:37:09;;;;;;;9.13;3.90;;;;;;;18.94;63.60;100206.72;5070283;23;20200;-79
2022/06/04 20:39:36;;;;;;;7.73;3.90;;;;;;;18.85;64.23;100203.41;5055325;23;20204;-79
2022/06/04 20:42:05;;;;;;;7.50;5.00;;;;;;;18.81;64.28;100204.84;5086882;23;21441;-83
2022/06/04 20:44:32;;;;;;;8.40;4.07;;;;;;;18.79;64.35;100206.91;5040033;23;20218;-85
2022/06/04 20:46:58;;;;;;;8.33;3.80;;;;;;;18.79;64.31;100208.78;5063404;23;21181;-83
2022/06/04 20:49:25;;;;;;;15.33;3.87;;;;;;;18.72;64.74;100214.94;5061786;23;20203;-77
2022/06/04 20:51:53;;;;;;;7.93;3.97;;;;;;;18.70;64.64;100210.78;5051553;23;22359;-77
2022/06/04 20:54:20;;;;;;;5.33;3.90;;;;;;;18.62;65.28;100213.69;5035141;23;20204;-79
2022/06/04 20:56:47;;;;;;;6.73;3.87;;;;;;;18.60;65.01;100216.56;5060448;23;20199;-78
2022/06/04 20:59:15;;;;;;;7.10;3.80;;;;;;;18.69;64.90;100211.84;5071063;23;20219;-77
2022/06/04 21:01:42;;;;;;;9.50;3.90;;;;;;;18.67;65.23;100222.81;5025169;23;21232;-77
2022/06/04 21:04:08;;;;;;;7.43;4.03;;;;;;;18.52;65.54;100214.06;5059698;23;20279;-76
2022/06/04 21:06:36;;;;;;;9.63;4.20;;;;;;;18.40;66.29;100215.66;5042345;23;20286;-81
2022/06/04 21:09:05;;;;;;;9.73;4.23;;;;;;;18.35;66.56;100217.13;5043226;23;20337;-77
2022/06/04 21:11:31;;;;;;;9.87;3.97;;;;;;;18.36;66.55;100220.66;5025335;23;20207;-78
2022/06/04 21:13:58;;;;;;;7.80;4.37;;;;;;;18.28;66.74;100228.88;5057234;23;21106;-81
2022/06/04 21:16:27;;;;;;;8.67;4.07;;;;;;;18.24;67.17;100216.84;5044058;23;20286;-77
2022/06/04 21:18:55;;;;;;;12.83;4.30;;;;;;;18.18;67.19;100228.44;5028070;23;20480;-76
2022/06/04 21:21:22;;;;;;;5.13;4.00;;;;;;;18.16;67.06;100225.09;5040694;23;20208;-77
2022/06/04 21:23:55;;;;;;;10.63;4.17;;;;;;;18.09;67.32;100231.28;5088510;23;20211;-76
2022/06/04 21:26:27;;;;;;;7.30;3.80;;;;;;;18.08;67.14;100234.19;5051031;23;20207;-78
2022/06/04 21:28:55;;;;;;;7.80;3.93;;;;;;;18.09;67.47;100239.34;5053846;23;21409;-77
2022/06/04 21:31:23;;;;;;;6.60;4.13;;;;;;;18.07;67.15;100244.09;5059367;23;20271;-78
2022/06/04 21:33:50;;;;;;;8.90;4.30;;;;;;;17.95;67.67;100240.31;5052658;23;20443;-77
2022/06/04 21:39:06;;;;;;;6.83;4.73;;;;;;;17.89;67.60;100249.19;5055015;23;20275;-77
2022/06/04 21:41:32;;;;;;;8.03;4.43;;;;;;;17.89;68.21;100235.75;5041176;23;20278;-80
2022/06/04 21:43:59;;;;;;;10.60;4.47;;;;;;;17.83;68.10;100247.28;5045080;23;21606;-76
2022/06/04 21:46:26;;;;;;;7.10;4.27;;;;;;;17.81;68.29;100254.72;5058583;23;21872;-77
2022/06/04 21:48:52;;;;;;;9.03;4.50;;;;;;;17.83;68.48;100248.13;5046480;23;20208;-79
2022/06/04 21:51:20;;;;;;;6.60;4.53;;;;;;;17.85;68.02;100247.94;5051940;23;20693;-78
2022/06/04 21:53:47;;;;;;;9.33;4.43;;;;;;;17.79;68.06;100243.28;5042038;23;20469;-79
2022/06/04 21:56:16;;;;;;;6.73;4.20;;;;;;;17.73;68.57;100248.44;5038956;23;20208;-79
2022/06/04 21:58:43;;;;;;;9.47;4.50;;;;;;;17.67;68.71;100243.81;5054186;23;20283;-76
2022/06/04 22:01:29;;;;;;;10.20;4.80;;;;;;;17.66;68.45;100247.56;5055991;23;21114;-79
2022/06/04 22:03:58;;;;;;;11.93;4.60;;;;;;;17.50;68.95;100253.22;5045195;23;22887;-80
2022/06/04 22:06:24;;;;;;;8.40;4.67;;;;;;;17.54;68.58;100254.50;5045443;23;20216;-79
2022/06/04 22:08:52;;;;;;;9.33;4.10;;;;;;;17.53;68.30;100255.53;5053733;23;20200;-78
2022/06/04 22:11:19;;;;;;;6.70;4.10;;;;;;;17.40;69.18;100269.72;5059255;23;20202;-78
2022/06/04 22:13:48;;;;;;;7.97;4.53;;;;;;;17.35;68.91;100260.53;5059463;23;20253;-78
2022/06/04 22:16:15;;;;;;;8.93;4.63;;;;;;;17.39;68.11;100259.13;5054122;23;20517;-78
2022/06/04 22:18:42;;;;;;;6.40;4.20;;;;;;;17.39;67.74;100256.44;5057384;23;20204;-78
2022/06/04 22:21:15;;;;;;;11.23;5.87;;;;;;;17.26;68.33;100265.25;5057735;23;20690;-77
2022/06/04 22:23:42;;;;;;;8.77;4.90;;;;;;;17.34;67.31;100258.88;5053769;23;20410;-77
2022/06/04 22:26:09;;;;;;;7.53;4.07;;;;;;;17.30;67.72;100269.19;5058550;23;22061;-77
2022/06/04 22:28:35;;;;;;;6.03;4.00;;;;;;;17.21;67.69;100271.19;5058625;23;20203;-79
2022/06/04 22:31:02;;;;;;;7.93;4.23;;;;;;;17.24;66.83;100262.72;5054251;23;20208;-78
2022/06/04 22:33:28;;;;;;;6.40;4.50;;;;;;;17.21;66.89;100271.19;5061631;23;20204;-80
2022/06/04 22:35:55;;;;;;;9.03;4.57;;;;;;;17.16;66.84;100272.78;5062819;23;20200;-78
2022/06/04 22:38:21;;;;;;;8.53;4.70;;;;;;;17.07;67.29;100269.41;5046646;23;21490;-79
2022/06/04 22:40:51;;;;;;;5.43;3.43;;;;;;;16.93;67.04;100267.56;5059052;23;20203;-77
2022/06/04 22:43:18;;;;;;;5.03;3.87;;;;;;;16.90;67.19;100278.72;5053389;23;20683;-79
2022/06/04 22:45:46;;;;;;;5.97;4.10;;;;;;;16.95;66.99;100290.59;5056496;23;20209;-78
2022/06/04 22:48:13;;;;;;;7.90;4.00;;;;;;;16.95;66.63;100289.72;5054259;23;20226;-76
2022/06/04 22:50:40;;;;;;;5.67;4.27;;;;;;;16.88;66.76;100293.19;5056639;23;20527;-79
2022/06/04 22:53:07;;;;;;;10.90;3.97;;;;;;;16.82;67.25;100291.25;5056160;23;26496;-79
2022/06/04 22:55:35;;;;;;;8.93;4.00;;;;;;;16.80;67.12;100295.97;5038917;23;23006;-78
2022/06/04 22:58:02;;;;;;;6.10;4.10;;;;;;;16.78;67.07;100292.59;5043867;23;20270;-78
2022/06/04 23:00:28;;;;;;;9.27;4.20;;;;;;;16.72;67.66;100297.94;5070898;23;20630;-78
2022/06/04 23:02:55;;;;;;;8.47;4.30;;;;;;;16.66;68.13;100289.56;5076311;23;20211;-79
2022/06/04 23:05:23;;;;;;;11.13;4.30;;;;;;;16.73;68.03;100299.59;5063311;23;20231;-77
2022/06/04 23:07:50;;;;;;;9.17;4.57;;;;;;;16.82;67.62;100299.31;5044387;23;22667;-77
2022/06/04 23:21:20;;;;;;;8.37;4.40;;;;;;;16.45;69.12;100302.94;5063684;23;20326;-77
2022/06/04 23:23:46;;;;;;;6.07;4.37;;;;;;;16.32;70.28;100298.25;5059609;23;21523;-77
2022/06/04 23:26:17;;;;;;;10.17;4.47;;;;;;;16.31;70.35;100301.94;5063640;23;20523;-77
2022/06/04 23:28:46;;;;;;;8.23;4.50;;;;;;;16.34;69.57;100301.59;5068573;23;22765;-76
2022/06/04 23:31:13;;;;;;;7.17;3.87;;;;;;;16.33;70.12;100305.28;5045276;23;20211;-79
2022/06/04 23:33:40;;;;;;;6.97;4.40;;;;;;;16.25;70.53;100297.34;5059527;23;20207;-78
2022/06/04 23:36:08;;;;;;;10.83;4.53;;;;;;;16.24;70.37;100301.00;5065748;23;20212;-79
2022/06/04 23:38:35;;;;;;;12.23;4.23;;;;;;;16.23;70.55;100294.00;5045147;23;21345;-77
2022/06/04 23:41:03;;;;;;;8.23;4.57;;;;;;;16.26;70.33;100301.66;5048823;23;21211;-77
2022/06/04 23:43:30;;;;;;;7.37;4.30;;;;;;;16.26;70.17;100298.97;5042571;23;20678;-78
2022/06/04 23:45:57;;;;;;;8.20;4.50;;;;;;;16.35;70.15;100303.25;5068226;23;20208;-76
2022/06/04 23:48:24;;;;;;;9.97;4.20;;;;;;;16.30;70.77;100299.47;5065655;23;20204;-78
2022/06/04 23:50:51;;;;;;;9.17;4.40;;;;;;;16.16;70.78;100293.06;5064772;23;20282;-78
2022/06/04 23:53:23;;;;;;;7.33;4.47;;;;;;;16.02;71.22;100298.25;5059048;23;20230;-78
2022/06/04 23:56:00;;;;;;;7.90;4.50;;;;;;;15.78;71.74;100301.16;5053695;23;20271;-78
2022/06/04 23:58:27;;;;;;;7.27;4.03;;;;;;;15.73;72.36;100303.56;5062608;23;20204;-79
